Terminal Aerodrome Forecast
Issued by NWS

Current Version | Previous Version | Text Only | Print | Product List | Glossary On
Versions: 1 2 3 4 5 6 7 8 9 10 11 12 13 14 15 16 17 18 19 20 21 22 23 24 25 26 27 28 29 30 31 32 33 34 35 36 37 38 39 40 41 42 43 44 45 46 47 48
000
FTUS45 KGJT 240149 AAC
TAFTEX
TAF AMD
KTEX 240149Z 2402/2424 VRB03KT 5SM -SN VCSH SCT008 SCT016 OVC045
      TEMPO 2402/2404 3SM -SN SCT008 BKN016
     FM240400 13003KT P6SM VCSH SCT015 BKN030 OVC045
     FM241800 28010G20KT P6SM BKN040 OVC060=

USA.gov is the U.S. government's official web portal to all federal, state and local government web resources and services.